createdAt,value
2022-10-09T00:00:00.975Z,5.20
2022-10-09T00:00:10.962Z,5.00
2022-10-09T00:00:20.977Z,5.50
2022-10-09T00:00:30.964Z,5.40
2022-10-09T00:00:40.969Z,5.80
2022-10-09T00:00:51.007Z,5.30
2022-10-09T00:01:01.113Z,5.70
2022-10-09T00:01:10.971Z,5.50
2022-10-09T00:01:20.991Z,5.60
2022-10-09T00:01:30.984Z,5.60
2022-10-09T00:01:40.955Z,5.40
2022-10-09T00:01:50.954Z,5.20
2022-10-09T00:02:01.026Z,5.20
2022-10-09T00:02:11.019Z,5.50
2022-10-09T00:02:21.978Z,5.50
2022-10-09T00:02:31.016Z,5.60
2022-10-09T00:02:41.024Z,5.50
2022-10-09T00:02:51.409Z,5.60
2022-10-09T00:03:00.950Z,5.50
2022-10-09T00:03:10.953Z,5.50
2022-10-09T00:03:20.955Z,6.10
2022-10-09T00:03:30.974Z,5.90
2022-10-09T00:03:41.073Z,5.60
2022-10-09T00:03:50.953Z,4.60
2022-10-09T00:04:00.948Z,4.50
2022-10-09T00:04:10.972Z,4.40
2022-10-09T00:04:20.938Z,4.60
2022-10-09T00:04:30.946Z,5.10
2022-10-09T00:04:40.951Z,5.60
2022-10-09T00:04:51.026Z,5.60
2022-10-09T00:05:01.122Z,5.50
2022-10-09T00:05:10.966Z,5.40
2022-10-09T00:05:21.018Z,5.40
2022-10-09T00:05:31.966Z,5.50
2022-10-09T00:05:43.858Z,5.00
2022-10-09T00:05:50.938Z,4.90
2022-10-09T00:06:00.942Z,4.70
2022-10-09T00:06:11.969Z,5.30
2022-10-09T00:06:21.013Z,5.60
2022-10-09T00:06:31.845Z,5.50
2022-10-09T00:06:41.869Z,5.00
2022-10-09T00:06:51.030Z,5.00
2022-10-09T00:07:01.873Z,5.10
2022-10-09T00:07:10.929Z,5.30
2022-10-09T00:07:20.932Z,4.70
2022-10-09T00:07:30.970Z,4.20
2022-10-09T00:07:40.927Z,4.00
2022-10-09T00:07:51.047Z,4.00
2022-10-09T00:08:00.925Z,3.90
2022-10-09T00:08:10.929Z,3.90
2022-10-09T00:08:20.935Z,4.10
2022-10-09T00:08:30.933Z,4.40
2022-10-09T00:08:41.859Z,4.10
2022-10-09T00:08:50.945Z,4.20
2022-10-09T00:09:00.926Z,4.30
2022-10-09T00:09:10.929Z,4.40
2022-10-09T00:09:20.934Z,4.20
2022-10-09T00:09:30.974Z,4.10
2022-10-09T00:09:40.927Z,4.40
2022-10-09T00:09:51.979Z,4.70
2022-10-09T00:10:00.927Z,5.60
2022-10-09T00:10:10.920Z,5.70
2022-10-09T00:10:20.955Z,6.10
2022-10-09T00:10:30.914Z,5.90
2022-10-09T00:10:40.912Z,5.70
2022-10-09T00:10:50.920Z,5.90
2022-10-09T00:11:00.908Z,6.00
2022-10-09T00:11:10.927Z,6.30
2022-10-09T00:11:20.911Z,5.70
2022-10-09T00:11:30.910Z,5.80
2022-10-09T00:11:40.923Z,5.50
2022-10-09T00:11:51.889Z,5.40
2022-10-09T00:12:00.994Z,5.00
2022-10-09T00:12:10.932Z,5.10
2022-10-09T00:12:20.912Z,5.30
2022-10-09T00:12:30.921Z,5.00
2022-10-09T00:12:41.860Z,4.80
2022-10-09T00:12:51.229Z,4.60
2022-10-09T00:13:00.900Z,4.60
2022-10-09T00:13:10.933Z,4.90
2022-10-09T00:13:20.900Z,5.10
2022-10-09T00:13:30.911Z,5.10
2022-10-09T00:13:40.941Z,5.30
2022-10-09T00:13:50.938Z,5.30
2022-10-09T00:14:01.964Z,5.10
2022-10-09T00:14:11.044Z,4.90
2022-10-09T00:14:20.899Z,4.60
2022-10-09T00:14:30.908Z,5.40
2022-10-09T00:14:41.933Z,5.30
2022-10-09T00:14:50.984Z,5.60
2022-10-09T00:15:01.913Z,5.00
2022-10-09T00:15:10.898Z,5.00
2022-10-09T00:15:20.904Z,4.70
2022-10-09T00:15:30.915Z,5.00
2022-10-09T00:15:40.916Z,4.60
2022-10-09T00:15:50.908Z,4.80
2022-10-09T00:16:00.891Z,4.20
2022-10-09T00:16:11.024Z,4.90
2022-10-09T00:16:20.923Z,4.70
2022-10-09T00:16:31.028Z,5.20
2022-10-09T00:16:40.902Z,5.10
2022-10-09T00:16:50.933Z,5.10
2022-10-09T00:17:00.970Z,4.90
2022-10-09T00:17:10.943Z,4.30
2022-10-09T00:17:20.898Z,4.30
2022-10-09T00:17:30.930Z,4.60
2022-10-09T00:17:40.905Z,5.10
2022-10-09T00:17:50.929Z,5.30
2022-10-09T00:18:00.978Z,5.30
2022-10-09T00:18:12.002Z,5.20
2022-10-09T00:18:20.875Z,5.00
2022-10-09T00:18:30.887Z,4.90
2022-10-09T00:18:40.898Z,5.30
2022-10-09T00:18:50.898Z,5.90
2022-10-09T00:19:00.886Z,6.10
2022-10-09T00:19:11.897Z,5.90
2022-10-09T00:19:20.902Z,5.60
2022-10-09T00:19:30.910Z,5.80
2022-10-09T00:19:40.878Z,5.60
2022-10-09T00:19:50.876Z,5.50
2022-10-09T00:20:00.872Z,5.10
2022-10-09T00:20:11.919Z,5.40
2022-10-09T00:20:21.018Z,5.50
2022-10-09T00:20:30.873Z,5.70
2022-10-09T00:20:40.887Z,5.70
2022-10-09T00:20:50.869Z,5.60
2022-10-09T00:21:00.880Z,5.60
2022-10-09T00:21:10.900Z,5.70
2022-10-09T00:21:20.872Z,5.70
2022-10-09T00:21:30.866Z,5.90
2022-10-09T00:21:40.898Z,6.00
2022-10-09T00:21:50.891Z,6.20
2022-10-09T00:22:00.958Z,6.20
2022-10-09T00:22:10.891Z,6.00
2022-10-09T00:22:21.906Z,6.00
2022-10-09T00:22:30.870Z,5.50
2022-10-09T00:22:41.100Z,5.60
2022-10-09T00:22:51.099Z,5.60
2022-10-09T00:23:00.910Z,5.50
2022-10-09T00:23:10.927Z,5.80
2022-10-09T00:23:20.861Z,5.60
2022-10-09T00:23:30.876Z,6.20
2022-10-09T00:23:40.857Z,6.00
2022-10-09T00:23:50.859Z,6.00
2022-10-09T00:24:00.877Z,6.00
2022-10-09T00:24:10.859Z,5.60
2022-10-09T00:24:20.870Z,5.70
2022-10-09T00:24:30.974Z,5.40
2022-10-09T00:24:40.867Z,5.80
2022-10-09T00:24:50.862Z,5.90
2022-10-09T00:25:00.879Z,6.30
2022-10-09T00:25:10.855Z,6.00
2022-10-09T00:25:20.866Z,5.80
2022-10-09T00:25:30.886Z,5.70
2022-10-09T00:25:40.866Z,5.90
2022-10-09T00:25:50.860Z,6.20
2022-10-09T00:26:00.890Z,6.30
2022-10-09T00:26:10.844Z,6.40
2022-10-09T00:26:20.858Z,6.10
2022-10-09T00:26:30.902Z,5.70
2022-10-09T00:26:40.869Z,5.50
2022-10-09T00:26:50.857Z,5.70
2022-10-09T00:27:00.843Z,5.80
2022-10-09T00:27:10.850Z,6.00
2022-10-09T00:27:20.870Z,5.50
2022-10-09T00:27:30.847Z,5.60
2022-10-09T00:27:43.352Z,5.60
2022-10-09T00:27:50.838Z,5.90
2022-10-09T00:28:00.845Z,5.80
2022-10-09T00:28:10.990Z,6.00
2022-10-09T00:28:20.932Z,5.70
2022-10-09T00:28:34.230Z,5.90
2022-10-09T00:28:40.864Z,5.90
2022-10-09T00:28:50.879Z,6.00
2022-10-09T00:29:00.954Z,5.80
2022-10-09T00:29:10.844Z,5.60
2022-10-09T00:29:20.827Z,5.90
2022-10-09T00:29:31.406Z,6.00
2022-10-09T00:29:40.841Z,6.40
2022-10-09T00:29:50.829Z,6.60
2022-10-09T00:30:00.829Z,7.00
2022-10-09T00:30:10.852Z,7.00
2022-10-09T00:30:20.828Z,6.90
2022-10-09T00:30:30.923Z,6.70
2022-10-09T00:30:41.406Z,6.50
2022-10-09T00:30:50.877Z,6.20
2022-10-09T00:31:00.884Z,6.70
2022-10-09T00:31:10.979Z,6.80
2022-10-09T00:31:20.948Z,7.80
2022-10-09T00:31:30.826Z,7.30
2022-10-09T00:31:40.862Z,7.20
2022-10-09T00:31:50.834Z,6.10
2022-10-09T00:32:00.819Z,5.90
2022-10-09T00:32:10.845Z,5.60
2022-10-09T00:32:20.850Z,6.10
2022-10-09T00:32:30.835Z,6.30
2022-10-09T00:32:40.862Z,6.80
2022-10-09T00:32:51.025Z,6.50
2022-10-09T00:33:00.831Z,6.50
2022-10-09T00:33:10.822Z,6.20
2022-10-09T00:33:20.954Z,6.20
2022-10-09T00:33:30.817Z,6.10
2022-10-09T00:33:40.819Z,6.20
2022-10-09T00:33:50.840Z,6.60
2022-10-09T00:34:00.841Z,6.70
2022-10-09T00:34:10.822Z,6.60
2022-10-09T00:34:20.811Z,6.00
2022-10-09T00:34:30.841Z,5.90
2022-10-09T00:34:40.831Z,5.80
2022-10-09T00:34:51.369Z,6.10
2022-10-09T00:35:01.050Z,6.20
2022-10-09T00:35:10.819Z,6.10
2022-10-09T00:35:21.367Z,5.80
2022-10-09T00:35:30.811Z,5.70
2022-10-09T00:35:40.838Z,5.60
2022-10-09T00:35:50.818Z,6.00
2022-10-09T00:36:00.802Z,6.10
2022-10-09T00:36:10.803Z,6.50
2022-10-09T00:36:20.801Z,5.90
2022-10-09T00:36:30.807Z,6.00
2022-10-09T00:36:40.808Z,5.80
2022-10-09T00:36:50.830Z,6.10
2022-10-09T00:37:00.926Z,6.50
2022-10-09T00:37:10.801Z,6.50
2022-10-09T00:37:20.829Z,6.80
2022-10-09T00:37:30.806Z,6.50
2022-10-09T00:37:40.808Z,6.60
2022-10-09T00:37:50.801Z,6.30
2022-10-09T00:38:00.815Z,6.10
2022-10-09T00:38:10.811Z,5.80
2022-10-09T00:38:20.800Z,5.80
2022-10-09T00:38:30.884Z,5.70
2022-10-09T00:38:40.811Z,6.10
2022-10-09T00:38:51.359Z,5.90
2022-10-09T00:39:01.350Z,5.90
2022-10-09T00:39:10.809Z,5.70
2022-10-09T00:39:20.793Z,5.80
2022-10-09T00:39:30.791Z,5.90
2022-10-09T00:39:40.791Z,5.80
2022-10-09T00:39:50.790Z,5.70
2022-10-09T00:40:00.798Z,5.60
2022-10-09T00:40:10.826Z,5.60
2022-10-09T00:40:20.800Z,5.80
2022-10-09T00:40:30.793Z,5.90
2022-10-09T00:40:40.785Z,5.70
2022-10-09T00:40:50.794Z,6.10
2022-10-09T00:41:01.365Z,6.00
2022-10-09T00:41:10.895Z,6.50
2022-10-09T00:41:20.790Z,5.90
2022-10-09T00:41:30.792Z,5.90
2022-10-09T00:41:40.775Z,5.80
2022-10-09T00:41:50.777Z,5.40
2022-10-09T00:42:00.800Z,5.20
2022-10-09T00:42:10.792Z,5.10
2022-10-09T00:42:20.778Z,5.90
2022-10-09T00:42:30.779Z,6.00
2022-10-09T00:42:40.799Z,5.80
2022-10-09T00:42:51.054Z,5.60
2022-10-09T00:43:00.952Z,5.80
2022-10-09T00:43:11.370Z,6.10
2022-10-09T00:43:20.766Z,5.80
2022-10-09T00:43:30.770Z,5.50
2022-10-09T00:43:40.885Z,5.60
2022-10-09T00:43:50.841Z,5.80
2022-10-09T00:44:00.921Z,6.10
2022-10-09T00:44:10.780Z,5.50
2022-10-09T00:44:20.778Z,5.70
2022-10-09T00:44:30.771Z,5.60
2022-10-09T00:44:40.763Z,5.40
2022-10-09T00:44:50.862Z,5.50
2022-10-09T00:45:00.773Z,5.10
2022-10-09T00:45:13.373Z,5.30
2022-10-09T00:45:20.899Z,4.90
2022-10-09T00:45:30.763Z,5.30
2022-10-09T00:45:40.758Z,5.30
2022-10-09T00:45:50.848Z,5.40
2022-10-09T00:46:00.835Z,5.30
2022-10-09T00:46:10.815Z,5.80
2022-10-09T00:46:20.934Z,5.70
2022-10-09T00:46:30.832Z,5.50
2022-10-09T00:46:40.765Z,5.10
2022-10-09T00:46:50.761Z,5.00
2022-10-09T00:47:00.783Z,4.80
2022-10-09T00:47:11.381Z,5.00
2022-10-09T00:47:23.371Z,5.20
2022-10-09T00:47:30.764Z,5.20
2022-10-09T00:47:40.852Z,5.20
2022-10-09T00:47:50.759Z,5.10
2022-10-09T00:48:00.749Z,5.30
2022-10-09T00:48:10.762Z,5.00
2022-10-09T00:48:20.752Z,5.00
2022-10-09T00:48:30.745Z,4.90
2022-10-09T00:48:40.760Z,5.10
2022-10-09T00:48:50.799Z,5.40
2022-10-09T00:49:00.779Z,5.90
2022-10-09T00:49:10.756Z,5.80
2022-10-09T00:49:21.367Z,6.10
2022-10-09T00:49:30.833Z,5.60
2022-10-09T00:49:40.743Z,5.60
2022-10-09T00:49:50.778Z,5.00
2022-10-09T00:50:01.417Z,5.00
2022-10-09T00:50:10.737Z,5.00
2022-10-09T00:50:20.756Z,5.40
2022-10-09T00:50:30.752Z,5.30
2022-10-09T00:50:40.772Z,5.10
2022-10-09T00:50:50.734Z,4.60
2022-10-09T00:51:00.758Z,4.80
2022-10-09T00:51:10.747Z,5.00
2022-10-09T00:51:20.751Z,6.00
2022-10-09T00:51:31.362Z,6.00
2022-10-09T00:51:40.748Z,5.70
2022-10-09T00:51:50.735Z,5.00
2022-10-09T00:52:00.743Z,5.00
2022-10-09T00:52:10.738Z,5.50
2022-10-09T00:52:20.740Z,5.40
2022-10-09T00:52:30.747Z,5.60
2022-10-09T00:52:40.756Z,4.90
2022-10-09T00:52:51.194Z,5.20
2022-10-09T00:53:01.556Z,4.80
2022-10-09T00:53:10.819Z,6.00
2022-10-09T00:53:20.728Z,5.80
2022-10-09T00:53:31.387Z,5.80
2022-10-09T00:53:40.722Z,5.10
2022-10-09T00:53:50.729Z,5.20
2022-10-09T00:54:00.823Z,4.90
2022-10-09T00:54:10.722Z,4.90
2022-10-09T00:54:20.745Z,5.30
2022-10-09T00:54:30.726Z,5.60
2022-10-09T00:54:40.783Z,5.40
2022-10-09T00:54:50.727Z,4.90
2022-10-09T00:55:00.737Z,4.70
2022-10-09T00:55:10.802Z,4.70
2022-10-09T00:55:20.717Z,5.00
2022-10-09T00:55:31.358Z,5.20
2022-10-09T00:55:40.808Z,5.60
2022-10-09T00:55:50.714Z,5.70
2022-10-09T00:56:00.725Z,5.70
2022-10-09T00:56:10.733Z,5.40
2022-10-09T00:56:20.744Z,5.60
2022-10-09T00:56:30.735Z,5.80
2022-10-09T00:56:40.728Z,5.90
2022-10-09T00:56:50.857Z,5.30
2022-10-09T00:57:00.713Z,5.10
2022-10-09T00:57:10.713Z,5.10
2022-10-09T00:57:20.713Z,5.20
2022-10-09T00:57:30.715Z,5.30
2022-10-09T00:57:41.373Z,5.80
2022-10-09T00:57:50.858Z,5.80
2022-10-09T00:58:00.714Z,5.50
2022-10-09T00:58:10.726Z,5.20
2022-10-09T00:58:20.726Z,5.20
2022-10-09T00:58:30.712Z,5.20
2022-10-09T00:58:40.705Z,5.10
2022-10-09T00:58:50.736Z,5.50
2022-10-09T00:59:00.702Z,6.10
2022-10-09T00:59:11.562Z,6.10
2022-10-09T00:59:20.709Z,5.70
2022-10-09T00:59:30.696Z,5.00
2022-10-09T00:59:40.709Z,5.10
2022-10-09T00:59:50.819Z,5.10
2022-10-09T01:00:00.703Z,5.30
2022-10-09T01:00:11.375Z,5.30
2022-10-09T01:00:20.697Z,5.20
2022-10-09T01:00:30.735Z,5.60
2022-10-09T01:00:40.708Z,5.50
2022-10-09T01:00:51.381Z,5.30
2022-10-09T01:01:00.743Z,4.90
2022-10-09T01:01:10.761Z,5.20
2022-10-09T01:01:20.818Z,5.20
2022-10-09T01:01:30.743Z,5.40
2022-10-09T01:01:40.839Z,4.90
2022-10-09T01:01:50.826Z,4.90
2022-10-09T01:02:00.831Z,4.40
2022-10-09T01:02:11.412Z,4.50
2022-10-09T01:02:20.711Z,5.30
2022-10-09T01:02:30.751Z,5.40
2022-10-09T01:02:40.770Z,5.30
2022-10-09T01:02:51.080Z,5.10
2022-10-09T01:03:00.689Z,5.50
2022-10-09T01:03:10.705Z,5.80
2022-10-09T01:03:20.733Z,5.60
2022-10-09T01:03:30.692Z,5.40
2022-10-09T01:03:40.698Z,5.40
2022-10-09T01:03:50.689Z,5.70
2022-10-09T01:04:01.383Z,5.60
2022-10-09T01:04:10.712Z,5.40
2022-10-09T01:04:20.738Z,5.10
2022-10-09T01:04:30.689Z,5.20
2022-10-09T01:04:40.684Z,5.60
2022-10-09T01:04:50.674Z,5.70
2022-10-09T01:05:00.689Z,5.90
2022-10-09T01:05:10.672Z,5.40
2022-10-09T01:05:20.680Z,5.20
2022-10-09T01:05:31.360Z,5.10
2022-10-09T01:05:40.682Z,5.10
2022-10-09T01:05:50.670Z,5.70
2022-10-09T01:06:01.376Z,5.50
2022-10-09T01:06:10.676Z,5.80
2022-10-09T01:06:20.678Z,5.10
2022-10-09T01:06:30.674Z,5.30
2022-10-09T01:06:40.700Z,5.10
2022-10-09T01:06:50.682Z,5.10
2022-10-09T01:07:00.673Z,4.90
2022-10-09T01:07:10.707Z,4.80
2022-10-09T01:07:20.675Z,5.20
2022-10-09T01:07:30.658Z,5.30
2022-10-09T01:07:40.677Z,5.50
2022-10-09T01:07:50.671Z,5.50
2022-10-09T01:08:00.688Z,5.50
2022-10-09T01:08:10.821Z,5.20
2022-10-09T01:08:20.669Z,5.30
2022-10-09T01:08:30.654Z,5.30
2022-10-09T01:08:40.687Z,5.30
2022-10-09T01:08:50.858Z,5.20
2022-10-09T01:09:00.678Z,5.00
2022-10-09T01:09:10.663Z,4.80
2022-10-09T01:09:20.681Z,4.80
2022-10-09T01:09:30.769Z,4.70
2022-10-09T01:09:40.671Z,4.90
2022-10-09T01:09:50.675Z,4.90
2022-10-09T01:10:00.668Z,4.90
2022-10-09T01:10:13.390Z,4.90
2022-10-09T01:10:20.787Z,5.10
2022-10-09T01:10:30.650Z,5.50
2022-10-09T01:10:40.656Z,5.30
2022-10-09T01:10:50.648Z,5.00
2022-10-09T01:11:00.650Z,4.80
2022-10-09T01:11:10.663Z,5.00
2022-10-09T01:11:20.654Z,5.10
2022-10-09T01:11:30.648Z,5.10
2022-10-09T01:11:40.669Z,4.90
2022-10-09T01:11:50.646Z,4.50
2022-10-09T01:12:00.644Z,4.10
2022-10-09T01:12:10.654Z,4.00
2022-10-09T01:12:20.806Z,4.20
2022-10-09T01:12:30.647Z,5.00
2022-10-09T01:12:40.669Z,5.60
2022-10-09T01:12:50.899Z,5.80
2022-10-09T01:13:00.667Z,5.30
2022-10-09T01:13:11.378Z,5.00
2022-10-09T01:13:20.653Z,4.70
2022-10-09T01:13:30.644Z,4.90
2022-10-09T01:13:40.634Z,4.90
2022-10-09T01:13:50.636Z,5.00
2022-10-09T01:14:00.642Z,4.90
2022-10-09T01:14:10.637Z,5.00
2022-10-09T01:14:21.386Z,5.30
2022-10-09T01:14:30.651Z,5.50
2022-10-09T01:14:41.389Z,5.40
2022-10-09T01:14:50.638Z,5.30
2022-10-09T01:15:01.383Z,4.90
2022-10-09T01:15:10.633Z,5.00
2022-10-09T01:15:20.642Z,5.30
2022-10-09T01:15:30.730Z,5.50
2022-10-09T01:15:40.659Z,5.40
2022-10-09T01:15:50.657Z,5.30
2022-10-09T01:16:00.693Z,6.20
2022-10-09T01:16:10.717Z,6.40
2022-10-09T01:16:23.897Z,6.30
2022-10-09T01:16:30.688Z,5.50
2022-10-09T01:16:40.620Z,5.80
2022-10-09T01:16:50.626Z,5.80
2022-10-09T01:17:00.788Z,6.10
2022-10-09T01:17:10.656Z,6.20
2022-10-09T01:17:20.623Z,6.00
2022-10-09T01:17:30.630Z,5.50
2022-10-09T01:17:40.626Z,5.30
2022-10-09T01:17:50.643Z,5.20
2022-10-09T01:18:00.629Z,5.80
2022-10-09T01:18:10.619Z,5.60
2022-10-09T01:18:20.651Z,5.80
2022-10-09T01:18:31.467Z,5.10
2022-10-09T01:18:40.617Z,5.80
2022-10-09T01:18:50.616Z,6.10
2022-10-09T01:19:03.394Z,6.30
2022-10-09T01:19:10.623Z,6.10
2022-10-09T01:19:20.657Z,5.80
2022-10-09T01:19:30.606Z,5.40
2022-10-09T01:19:40.617Z,5.00
2022-10-09T01:19:51.496Z,5.10
2022-10-09T01:20:00.629Z,5.30
2022-10-09T01:20:10.616Z,5.10
2022-10-09T01:20:21.410Z,5.00
2022-10-09T01:20:30.619Z,5.40
2022-10-09T01:20:40.686Z,5.70
2022-10-09T01:20:50.606Z,5.80
2022-10-09T01:21:00.603Z,5.80
2022-10-09T01:21:11.403Z,5.60
2022-10-09T01:21:21.391Z,5.60
2022-10-09T01:21:30.606Z,5.00
2022-10-09T01:21:40.641Z,5.00
2022-10-09T01:21:50.618Z,5.10
2022-10-09T01:22:00.610Z,5.30
2022-10-09T01:22:10.728Z,5.40
2022-10-09T01:22:20.597Z,5.70
2022-10-09T01:22:30.598Z,5.60
2022-10-09T01:22:40.643Z,5.50
2022-10-09T01:22:51.154Z,5.40
2022-10-09T01:23:00.603Z,5.80
2022-10-09T01:23:10.599Z,6.30
2022-10-09T01:23:20.601Z,6.30
2022-10-09T01:23:30.606Z,6.30
2022-10-09T01:23:40.625Z,5.90
2022-10-09T01:23:50.589Z,5.90
2022-10-09T01:24:00.609Z,6.00
2022-10-09T01:24:10.653Z,6.40
2022-10-09T01:24:23.494Z,6.30
2022-10-09T01:24:30.611Z,6.50
2022-10-09T01:24:40.599Z,5.80
2022-10-09T01:24:50.697Z,6.10
2022-10-09T01:25:01.503Z,5.60
2022-10-09T01:25:10.593Z,6.20
2022-10-09T01:25:20.597Z,6.30
2022-10-09T01:25:30.621Z,6.20
2022-10-09T01:25:40.591Z,5.90
2022-10-09T01:25:50.593Z,5.80
2022-10-09T01:26:00.583Z,6.10
2022-10-09T01:26:10.585Z,6.20
2022-10-09T01:26:20.603Z,5.90
2022-10-09T01:26:30.641Z,6.10
2022-10-09T01:26:40.609Z,6.40
2022-10-09T01:26:51.374Z,6.70
2022-10-09T01:27:00.699Z,6.40
2022-10-09T01:27:10.576Z,6.40
2022-10-09T01:27:20.591Z,6.40
2022-10-09T01:27:30.589Z,6.90
2022-10-09T01:27:40.576Z,6.50
2022-10-09T01:27:50.582Z,6.70
2022-10-09T01:28:00.597Z,6.40
2022-10-09T01:28:10.624Z,6.60
2022-10-09T01:28:20.651Z,6.20
2022-10-09T01:28:30.622Z,6.00
2022-10-09T01:28:40.739Z,6.10
2022-10-09T01:28:50.569Z,5.90
2022-10-09T01:29:01.414Z,5.80
2022-10-09T01:29:10.586Z,5.80
2022-10-09T01:29:21.382Z,6.20
2022-10-09T01:29:30.569Z,6.00
2022-10-09T01:29:40.580Z,5.90
2022-10-09T01:29:51.385Z,5.60
2022-10-09T01:30:00.561Z,5.80
2022-10-09T01:30:10.674Z,5.80
2022-10-09T01:30:20.567Z,6.30
2022-10-09T01:30:30.580Z,6.70
2022-10-09T01:30:40.592Z,6.80
2022-10-09T01:30:50.638Z,6.60
2022-10-09T01:31:01.459Z,6.10
2022-10-09T01:31:11.575Z,5.90
2022-10-09T01:31:20.616Z,5.90
2022-10-09T01:31:30.749Z,6.00
2022-10-09T01:31:40.559Z,6.00
2022-10-09T01:31:50.564Z,5.80
2022-10-09T01:32:00.573Z,6.00
2022-10-09T01:32:10.569Z,6.10
2022-10-09T01:32:20.554Z,6.40
2022-10-09T01:32:30.562Z,6.30
2022-10-09T01:32:40.552Z,6.60
2022-10-09T01:32:51.096Z,6.50
2022-10-09T01:33:00.576Z,7.00
2022-10-09T01:33:11.489Z,6.40
2022-10-09T01:33:20.547Z,6.60
2022-10-09T01:33:30.574Z,6.20
2022-10-09T01:33:40.553Z,6.90
2022-10-09T01:33:51.379Z,6.60
2022-10-09T01:34:00.541Z,6.50
2022-10-09T01:34:10.633Z,6.70
2022-10-09T01:34:20.628Z,6.80
2022-10-09T01:34:30.574Z,7.60
2022-10-09T01:34:40.556Z,7.30
2022-10-09T01:34:50.565Z,7.70
2022-10-09T01:35:00.668Z,6.80
2022-10-09T01:35:10.552Z,7.00
2022-10-09T01:35:20.707Z,6.60
2022-10-09T01:35:30.547Z,6.90
2022-10-09T01:35:40.537Z,6.80
2022-10-09T01:35:50.578Z,6.70
2022-10-09T01:36:00.549Z,6.60
2022-10-09T01:36:10.540Z,7.10
2022-10-09T01:36:20.537Z,7.60
2022-10-09T01:36:30.556Z,7.80
2022-10-09T01:36:40.552Z,7.30
2022-10-09T01:36:50.550Z,7.20
2022-10-09T01:37:00.549Z,7.30
2022-10-09T01:37:10.533Z,7.20
2022-10-09T01:37:20.689Z,7.00
2022-10-09T01:37:30.536Z,6.50
2022-10-09T01:37:40.542Z,6.60
2022-10-09T01:37:50.532Z,6.60
2022-10-09T01:38:00.613Z,7.10
2022-10-09T01:38:10.654Z,6.90
2022-10-09T01:38:20.532Z,7.00
2022-10-09T01:38:30.552Z,6.70
2022-10-09T01:38:41.378Z,7.30
2022-10-09T01:38:50.524Z,7.70
2022-10-09T01:39:00.528Z,8.20
2022-10-09T01:39:10.549Z,7.90
2022-10-09T01:39:21.404Z,7.30
2022-10-09T01:39:31.385Z,6.80
2022-10-09T01:39:40.532Z,6.70
2022-10-09T01:39:50.523Z,6.90
2022-10-09T01:40:00.520Z,7.40
2022-10-09T01:40:10.519Z,6.90
2022-10-09T01:40:20.539Z,6.70
2022-10-09T01:40:30.610Z,6.30
2022-10-09T01:40:40.533Z,7.00
2022-10-09T01:40:50.531Z,7.20
2022-10-09T01:41:00.514Z,7.10
2022-10-09T01:41:10.517Z,6.90
2022-10-09T01:41:20.544Z,7.10
2022-10-09T01:41:30.647Z,7.00
2022-10-09T01:41:40.512Z,6.60
2022-10-09T01:41:50.515Z,6.30
2022-10-09T01:42:00.533Z,6.30
2022-10-09T01:42:10.511Z,6.60
2022-10-09T01:42:20.505Z,6.70
2022-10-09T01:42:30.514Z,7.30
2022-10-09T01:42:40.512Z,7.10
2022-10-09T01:42:50.801Z,6.90
2022-10-09T01:43:00.501Z,6.50
2022-10-09T01:43:10.524Z,7.10
2022-10-09T01:43:20.513Z,7.20
2022-10-09T01:43:31.381Z,6.80
2022-10-09T01:43:40.703Z,6.80
2022-10-09T01:43:50.517Z,7.00
2022-10-09T01:44:00.529Z,7.50
2022-10-09T01:44:10.500Z,7.20
2022-10-09T01:44:20.515Z,6.80
2022-10-09T01:44:30.502Z,6.70
2022-10-09T01:44:40.497Z,6.80
2022-10-09T01:44:50.523Z,7.20
2022-10-09T01:45:00.515Z,7.00
2022-10-09T01:45:11.430Z,6.90
2022-10-09T01:45:21.462Z,6.90
2022-10-09T01:45:30.515Z,6.90
2022-10-09T01:45:41.012Z,6.90
2022-10-09T01:45:50.504Z,7.10
2022-10-09T01:46:00.554Z,7.50
2022-10-09T01:46:11.495Z,7.90
2022-10-09T01:46:20.536Z,7.80
2022-10-09T01:46:30.615Z,7.80
2022-10-09T01:46:40.531Z,8.00
2022-10-09T01:46:50.489Z,8.10
2022-10-09T01:47:00.486Z,8.00
2022-10-09T01:47:10.507Z,7.70
2022-10-09T01:47:20.531Z,7.80
2022-10-09T01:47:30.482Z,7.60
2022-10-09T01:47:41.421Z,7.20
2022-10-09T01:47:50.486Z,7.30
2022-10-09T01:48:00.484Z,7.70
2022-10-09T01:48:10.501Z,8.00
2022-10-09T01:48:20.491Z,7.50
2022-10-09T01:48:30.487Z,7.30
2022-10-09T01:48:40.512Z,7.30
2022-10-09T01:48:50.483Z,7.80
2022-10-09T01:49:00.488Z,7.90
2022-10-09T01:49:11.470Z,8.00
2022-10-09T01:49:20.481Z,7.80
2022-10-09T01:49:30.490Z,8.20
2022-10-09T01:49:40.514Z,8.70
2022-10-09T01:49:50.562Z,8.60
2022-10-09T01:50:00.493Z,8.10
2022-10-09T01:50:10.472Z,7.30
2022-10-09T01:50:20.469Z,7.50
2022-10-09T01:50:31.418Z,7.80
2022-10-09T01:50:40.473Z,7.90
2022-10-09T01:50:51.161Z,7.50
2022-10-09T01:51:00.608Z,6.60
2022-10-09T01:51:10.468Z,6.70
2022-10-09T01:51:20.560Z,7.30
2022-10-09T01:51:30.487Z,7.80
2022-10-09T01:51:40.461Z,8.00
2022-10-09T01:51:51.392Z,7.90
2022-10-09T01:52:00.493Z,8.20
2022-10-09T01:52:10.474Z,8.10
2022-10-09T01:52:20.477Z,9.40
2022-10-09T01:52:30.512Z,9.00
2022-10-09T01:52:41.472Z,9.10
2022-10-09T01:52:50.825Z,8.10
2022-10-09T01:53:00.462Z,8.20
2022-10-09T01:53:10.458Z,7.90
2022-10-09T01:53:20.489Z,7.70
2022-10-09T01:53:30.463Z,7.90
2022-10-09T01:53:40.455Z,8.20
2022-10-09T01:53:50.485Z,8.60
2022-10-09T01:54:00.456Z,8.30
2022-10-09T01:54:10.455Z,8.10
2022-10-09T01:54:20.487Z,7.70
2022-10-09T01:54:30.457Z,7.80
2022-10-09T01:54:40.454Z,7.80
2022-10-09T01:54:50.483Z,7.60
2022-10-09T01:55:00.451Z,7.30
2022-10-09T01:55:10.460Z,7.40
2022-10-09T01:55:20.450Z,8.10
2022-10-09T01:55:30.455Z,8.00
2022-10-09T01:55:40.458Z,8.20
2022-10-09T01:55:53.472Z,7.90
2022-10-09T01:56:01.284Z,8.30
2022-10-09T01:56:10.477Z,7.90
2022-10-09T01:56:21.378Z,7.90
2022-10-09T01:56:30.445Z,7.50
2022-10-09T01:56:40.443Z,7.60
2022-10-09T01:56:50.447Z,7.90
2022-10-09T01:57:00.439Z,8.60
2022-10-09T01:57:10.480Z,8.80
2022-10-09T01:57:20.497Z,8.20
2022-10-09T01:57:30.443Z,7.80
2022-10-09T01:57:40.462Z,8.10
2022-10-09T01:57:50.451Z,8.10
2022-10-09T01:58:01.479Z,8.60
2022-10-09T01:58:10.487Z,8.10
2022-10-09T01:58:20.435Z,7.90
2022-10-09T01:58:30.451Z,7.60
2022-10-09T01:58:40.464Z,7.10
2022-10-09T01:58:50.511Z,7.30
2022-10-09T01:59:00.451Z,7.10
2022-10-09T01:59:15.478Z,6.80
2022-10-09T01:59:20.432Z,6.80
2022-10-09T01:59:30.542Z,6.40
2022-10-09T01:59:40.437Z,7.00
2022-10-09T01:59:50.437Z,7.20
2022-10-09T02:00:00.463Z,7.60
2022-10-09T02:00:10.488Z,8.20
2022-10-09T02:00:20.427Z,8.70
2022-10-09T02:00:30.452Z,8.90
2022-10-09T02:00:40.447Z,8.70
2022-10-09T02:00:50.432Z,7.80
2022-10-09T02:01:00.445Z,7.70
2022-10-09T02:01:10.696Z,7.70
2022-10-09T02:01:20.486Z,7.70
2022-10-09T02:01:30.478Z,7.70
2022-10-09T02:01:40.480Z,7.50
2022-10-09T02:01:50.583Z,7.80
2022-10-09T02:02:00.613Z,7.20
2022-10-09T02:02:10.553Z,7.10
2022-10-09T02:02:20.607Z,7.20
2022-10-09T02:02:30.488Z,8.30
2022-10-09T02:02:40.481Z,8.70
2022-10-09T02:02:50.852Z,8.50
2022-10-09T02:03:00.451Z,7.70
2022-10-09T02:03:10.420Z,7.50
2022-10-09T02:03:21.386Z,7.00
2022-10-09T02:03:30.420Z,6.80
2022-10-09T02:03:40.416Z,6.40
2022-10-09T02:03:50.420Z,6.80
2022-10-09T02:04:00.492Z,6.60
2022-10-09T02:04:10.437Z,6.70
2022-10-09T02:04:20.554Z,7.10
2022-10-09T02:04:30.422Z,7.70
2022-10-09T02:04:40.425Z,7.70
2022-10-09T02:04:50.433Z,7.80
2022-10-09T02:05:00.407Z,7.60
2022-10-09T02:05:10.420Z,7.90
2022-10-09T02:05:20.445Z,7.80
2022-10-09T02:05:30.416Z,8.00
2022-10-09T02:05:40.422Z,7.50
2022-10-09T02:05:50.401Z,7.80
2022-10-09T02:06:00.405Z,7.80
2022-10-09T02:06:10.438Z,8.00
2022-10-09T02:06:20.501Z,7.50
2022-10-09T02:06:30.499Z,7.90
2022-10-09T02:06:40.415Z,8.20
2022-10-09T02:06:50.398Z,8.20
2022-10-09T02:07:00.411Z,7.50
2022-10-09T02:07:10.410Z,7.50
2022-10-09T02:07:21.403Z,7.40
2022-10-09T02:07:30.412Z,7.30
2022-10-09T02:07:40.441Z,6.80
2022-10-09T02:07:50.483Z,6.60
2022-10-09T02:08:00.414Z,6.70
2022-10-09T02:08:10.392Z,6.80
2022-10-09T02:08:20.390Z,6.80
2022-10-09T02:08:32.901Z,7.00
2022-10-09T02:08:40.395Z,7.10
2022-10-09T02:08:50.906Z,6.90
2022-10-09T02:09:00.400Z,7.10
2022-10-09T02:09:10.388Z,7.40
2022-10-09T02:09:20.390Z,7.40
2022-10-09T02:09:30.422Z,7.50
2022-10-09T02:09:40.484Z,7.40
2022-10-09T02:09:50.403Z,7.90
2022-10-09T02:10:00.523Z,8.20
2022-10-09T02:10:10.390Z,8.80
2022-10-09T02:10:20.391Z,8.60
2022-10-09T02:10:30.417Z,8.00
2022-10-09T02:10:40.389Z,7.20
2022-10-09T02:10:50.404Z,7.20
2022-10-09T02:11:00.373Z,7.10
2022-10-09T02:11:10.907Z,7.70
2022-10-09T02:11:20.407Z,7.60
2022-10-09T02:11:42.003Z,7.90
2022-10-09T02:11:42.249Z,7.70
2022-10-09T02:11:52.253Z,7.70
2022-10-09T02:12:02.254Z,7.80
2022-10-09T02:12:12.227Z,7.20
2022-10-09T02:12:22.302Z,7.00
2022-10-09T02:12:32.893Z,6.60
2022-10-09T02:12:42.227Z,7.00
2022-10-09T02:12:52.259Z,7.50
2022-10-09T02:13:02.237Z,8.20